Archiv-/Tagesdaten

--Timestamp---	Temp	Chill	HIndex	Humid	Dewpt	 Wind 	HiWind	WindDir	Rain 	Barom	Solar	 ET  	 UV 
--------------	----	-----	------	-----	-----	------	------	-------	-----	-----	-----	-----	----
20100112 00:00	-3.9	-3.9	-3.9	89	-5.5	3	6	270	0.0	787.8	0	0.000	0.0
20100112 00:05	-3.9	-3.9	-3.9	89	-5.5	3	6	270	0.0	787.8	0	0.000	0.0
20100112 00:10	-3.9	-3.9	-3.9	89	-5.5	3	5	270	0.0	787.8	0	0.000	0.0
20100112 00:15	-3.9	-3.9	-3.9	88	-5.6	3	5	270	0.0	787.8	0	0.000	0.0
20100112 00:20	-4.0	-4.0	-4.0	88	-5.7	2	5	270	0.0	1017.7	0	0.000	0.0
20100112 00:25	-4.0	-4.0	-4.0	88	-5.7	3	6	270	0.0	1017.7	0	0.000	0.0
20100112 00:30	-4.0	-4.0	-4.0	88	-5.7	3	6	270	0.0	1017.7	0	0.000	0.0
20100112 00:35	-4.0	-4.0	-4.0	88	-5.7	2	5	270	0.0	1017.7	0	0.000	0.0
20100112 00:40	-4.0	-4.0	-4.0	88	-5.7	2	5	270	0.0	1017.7	0	0.000	0.0
20100112 00:45	-4.1	-4.1	-4.1	88	-5.7	2	3	270	0.0	1017.7	0	0.000	0.0
20100112 00:50	-4.1	-4.1	-4.1	88	-5.7	2	3	270	0.0	789.6	0	0.000	0.0
20100112 00:55	-4.1	-4.1	-4.1	88	-5.7	0	2	270	0.0	789.7	0	0.000	0.0
20100112 01:00	-4.0	-4.0	-4.0	88	-5.7	0	5	270	0.0	1017.8	0	0.000	0.0
20100112 01:05	-4.0	-4.0	-4.0	88	-5.7	2	3	270	0.0	1017.9	0	0.000	0.0
20100112 01:10	-4.0	-4.0	-4.0	88	-5.7	2	5	270	0.0	1017.8	0	0.000	0.0
20100112 01:15	-4.1	-4.1	-4.1	88	-5.7	2	5	270	0.0	1017.7	0	0.000	0.0
20100112 01:20	-4.1	-4.1	-4.1	88	-5.7	2	5	270	0.0	1017.7	0	0.000	0.0
20100112 01:25	-4.1	-4.1	-4.1	88	-5.7	2	5	270	0.0	1017.7	0	0.000	0.0
20100112 01:30	-4.1	-4.1	-4.1	88	-5.7	2	3	270	0.0	1017.7	0	0.000	0.0
20100112 01:35	-4.1	-4.1	-4.1	88	-5.7	2	3	270	0.0	1017.8	0	0.000	0.0
20100112 01:40	-4.1	-4.1	-4.1	88	-5.7	2	5	270	0.0	1017.7	0	0.000	0.0
20100112 01:45	-4.1	-4.1	-4.1	88	-5.7	2	5	270	0.0	1017.7	0	0.000	0.0
20100112 01:50	-4.1	-4.1	-4.1	88	-5.7	2	3	270	0.0	1017.7	0	0.000	0.0
20100112 01:55	-4.1	-4.1	-4.1	88	-5.7	2	3	270	0.0	1017.7	0	0.000	0.0
20100112 02:00	-4.1	-4.1	-4.1	88	-5.7	2	3	270	0.0	1017.7	0	0.000	0.0
20100112 02:05	-4.1	-4.1	-4.1	89	-5.6	2	5	270	0.0	790.7	0	0.000	0.0
20100112 02:10	-4.1	-4.1	-4.1	89	-5.6	2	3	270	0.0	1017.9	0	0.000	0.0
20100112 02:15	-4.1	-4.1	-4.1	89	-5.6	0	3	270	0.0	1018.0	0	0.000	0.0
20100112 02:20	-4.1	-4.1	-4.1	89	-5.6	0	3	270	0.0	1018.0	0	0.000	0.0
20100112 02:25	-4.1	-4.1	-4.1	89	-5.6	0	2	270	0.0	1018.0	0	0.000	0.0
20100112 02:30	-4.1	-4.1	-4.1	89	-5.6	0	2	270	0.0	1017.9	0	0.000	0.0
20100112 02:35	-4.1	-4.1	-4.1	89	-5.6	0	0	-100000	0.0	1018.0	0	0.000	0.0
20100112 02:40	-4.1	-4.1	-4.1	89	-5.6	0	0	-100000	0.0	1018.0	0	0.000	0.0
20100112 02:45	-4.1	-4.1	-4.1	89	-5.6	0	3	270	0.0	1018.0	0	0.000	0.0
20100112 02:50	-4.1	-4.1	-4.1	89	-5.6	0	3	270	0.0	1018.0	0	0.000	0.0
20100112 02:55	-4.2	-4.2	-4.2	89	-5.7	0	2	270	0.0	1017.9	0	0.000	0.0
20100112 03:00	-4.2	-4.2	-4.2	89	-5.7	0	0	-100000	0.0	1017.9	0	0.000	0.0
20100112 03:05	-4.2	-4.2	-4.2	89	-5.7	0	0	-100000	0.0	1017.9	0	0.000	0.0
20100112 03:10	-4.2	-4.2	-4.2	89	-5.7	0	0	-100000	0.2	1017.9	0	0.000	0.0
20100112 03:15	-4.2	-4.2	-4.2	90	-5.6	0	2	270	0.0	1018.0	0	0.000	0.0
20100112 03:20	-4.1	-4.1	-4.1	90	-5.5	0	0	-100000	0.0	1018.0	0	0.000	0.0
20100112 03:25	-4.1	-4.1	-4.1	90	-5.5	0	3	270	0.0	1018.0	0	0.000	0.0
20100112 03:30	-4.1	-4.1	-4.1	90	-5.4	0	0	-100000	0.0	1018.0	0	0.000	0.0
20100112 03:35	-4.1	-4.1	-4.1	90	-5.4	0	0	-100000	0.0	1018.0	0	0.000	0.0
20100112 03:40	-4.1	-4.1	-4.1	90	-5.4	0	0	-100000	0.0	1018.0	0	0.000	0.0
20100112 03:45	-4.0	-4.0	-4.0	90	-5.4	0	0	-100000	0.0	1018.0	0	0.000	0.0
20100112 03:50	-4.0	-4.0	-4.0	90	-5.4	0	0	-100000	0.0	1018.0	0	0.000	0.0
20100112 03:55	-4.0	-4.0	-4.0	90	-5.4	0	0	-100000	0.0	1018.1	0	0.000	0.0
20100112 04:00	-4.0	-4.0	-4.0	90	-5.4	0	0	-100000	0.0	1018.1	0	0.000	0.0
20100112 04:05	-3.9	-3.9	-3.9	90	-5.3	0	0	-100000	0.0	1018.2	0	0.000	0.0
20100112 04:10	-3.9	-3.9	-3.9	89	-5.4	0	0	-100000	0.0	1018.2	0	0.000	0.0
20100112 04:15	-3.9	-3.9	-3.9	89	-5.4	0	0	-100000	0.0	1018.2	0	0.000	0.0
20100112 04:20	-3.9	-3.9	-3.9	90	-5.3	0	0	-100000	0.0	1018.2	0	0.000	0.0
20100112 04:25	-3.8	-3.8	-3.8	89	-5.3	0	0	-100000	0.0	1018.2	0	0.000	0.0
20100112 04:30	-3.8	-3.8	-3.8	89	-5.3	0	0	-100000	0.0	1018.2	0	0.000	0.0
20100112 04:35	-3.7	-3.7	-3.7	89	-5.3	0	0	-100000	0.0	1018.3	0	0.000	0.0
20100112 04:40	-3.7	-3.7	-3.7	89	-5.3	0	2	270	0.0	1018.3	0	0.000	0.0
20100112 04:45	-3.7	-3.7	-3.7	89	-5.2	0	0	-100000	0.0	1018.3	0	0.000	0.0
20100112 04:50	-3.7	-3.7	-3.7	89	-5.2	0	0	-100000	0.0	1018.3	0	0.000	0.0
20100112 04:55	-3.7	-3.7	-3.7	89	-5.2	0	0	-100000	0.0	1018.2	0	0.000	0.0
20100112 05:00	-3.7	-3.7	-3.7	88	-5.4	0	0	-100000	0.0	1018.2	0	0.000	0.0
20100112 05:05	-3.8	-3.8	-3.8	89	-5.4	0	3	270	0.0	1018.2	0	0.000	0.0
20100112 05:10	-3.8	-3.8	-3.8	89	-5.4	0	3	270	0.0	1018.2	0	0.000	0.0
20100112 05:15	-3.9	-3.9	-3.9	89	-5.4	2	3	270	0.0	1018.2	0	0.000	0.0
20100112 05:20	-3.9	-3.9	-3.9	89	-5.4	0	2	270	0.0	1018.2	0	0.000	0.0
20100112 05:25	-3.9	-3.9	-3.9	89	-5.5	2	3	270	0.0	1018.2	0	0.000	0.0
20100112 05:30	-3.9	-3.9	-3.9	89	-5.5	2	3	270	0.0	1018.2	0	0.000	0.0
20100112 05:35	-3.9	-3.9	-3.9	89	-5.5	2	3	270	0.0	1018.2	0	0.000	0.0
20100112 05:40	-3.9	-3.9	-3.9	89	-5.5	0	3	270	0.0	1018.2	0	0.000	0.0
20100112 05:45	-3.9	-3.9	-3.9	89	-5.5	0	0	-100000	0.0	1018.2	0	0.000	0.0
20100112 05:50	-4.0	-4.0	-4.0	89	-5.5	0	0	-100000	0.0	1018.3	0	0.000	0.0
20100112 05:55	-4.0	-4.0	-4.0	89	-5.5	0	3	270	0.0	1018.2	0	0.000	0.0
20100112 06:00	-4.1	-4.1	-4.1	89	-5.6	0	0	-100000	0.0	1018.3	0	0.000	0.0
20100112 06:05	-4.1	-4.1	-4.1	89	-5.6	0	3	270	0.0	1018.1	0	0.000	0.0
20100112 06:10	-4.1	-4.1	-4.1	89	-5.6	2	3	270	0.0	1018.2	0	0.000	0.0
20100112 06:15	-4.2	-4.2	-4.2	89	-5.7	0	3	270	0.0	1018.2	0	0.000	0.0
20100112 06:20	-4.2	-4.2	-4.2	89	-5.8	0	2	270	0.0	1018.2	0	0.000	0.0
20100112 06:25	-4.2	-4.2	-4.2	89	-5.8	0	3	270	0.0	1018.2	0	0.000	0.0
20100112 06:30	-4.2	-4.2	-4.2	89	-5.8	0	2	270	0.0	1018.2	0	0.000	0.0
20100112 06:35	-4.2	-4.2	-4.2	89	-5.8	0	3	270	0.0	1018.1	0	0.000	0.0
20100112 06:40	-4.2	-4.2	-4.2	89	-5.8	0	2	270	0.0	1018.2	0	0.000	0.0
20100112 06:45	-4.2	-4.2	-4.2	89	-5.8	0	3	270	0.0	1018.1	0	0.000	0.0
20100112 06:50	-4.2	-4.2	-4.2	89	-5.8	0	5	270	0.0	1018.1	0	0.000	0.0
20100112 06:55	-4.2	-4.2	-4.2	89	-5.8	0	0	-100000	0.0	1018.2	0	0.000	0.0
20100112 07:00	-4.2	-4.2	-4.2	90	-5.6	0	0	-100000	0.0	1018.3	0	0.000	0.0
20100112 07:05	-4.1	-4.1	-4.1	90	-5.5	2	3	270	0.0	1018.2	0	0.000	0.0
20100112 07:10	-4.1	-4.1	-4.1	89	-5.6	0	3	270	0.0	1018.3	0	0.000	0.0
20100112 07:15	-4.2	-4.2	-4.2	89	-5.7	0	3	270	0.0	1018.3	0	0.000	0.0
20100112 07:20	-4.2	-4.2	-4.2	89	-5.7	0	2	270	0.0	1018.3	0	0.000	0.0
20100112 07:25	-4.2	-4.2	-4.2	89	-5.8	0	2	270	0.0	1018.3	0	0.000	0.0
20100112 07:30	-4.2	-4.2	-4.2	89	-5.7	0	3	270	0.0	1018.2	0	0.000	0.0
20100112 07:35	-4.2	-4.2	-4.2	89	-5.7	2	3	270	0.0	1018.2	0	0.000	0.0
20100112 07:40	-4.2	-4.2	-4.2	89	-5.7	0	2	270	0.0	1018.2	0	0.000	0.0
20100112 07:45	-4.2	-4.2	-4.2	89	-5.7	0	0	-100000	0.0	1018.2	0	0.000	0.0
20100112 07:50	-4.2	-4.2	-4.2	88	-5.9	0	2	270	0.0	1018.2	0	0.000	0.0
20100112 07:55	-4.3	-4.3	-4.3	88	-6.0	0	0	-100000	0.0	1018.4	0	0.000	0.0
20100112 08:00	-4.4	-4.4	-4.4	89	-6.0	2	3	270	0.0	1018.3	0	0.000	0.0
20100112 08:05	-4.6	-4.6	-4.6	88	-6.2	2	3	270	0.0	1018.2	0	0.000	0.0
20100112 08:10	-4.7	-4.7	-4.7	88	-6.4	2	5	270	0.0	1018.2	0	0.000	0.0
20100112 08:15	-4.8	-4.8	-4.8	89	-6.3	0	3	270	0.0	1018.2	0	0.000	0.0
20100112 08:20	-4.8	-4.8	-4.8	89	-6.4	2	5	270	0.0	1018.1	1	0.000	0.0
20100112 08:25	-4.9	-4.9	-4.9	89	-6.4	2	3	270	0.0	1018.2	5	0.000	0.0
20100112 08:30	-4.9	-4.9	-4.9	89	-6.4	0	3	270	0.0	1018.2	5	0.000	0.0
20100112 08:35	-4.9	-4.9	-4.9	90	-6.3	2	3	270	0.0	1018.2	5	0.000	0.0
20100112 08:40	-4.8	-4.8	-4.8	89	-6.4	2	5	270	0.0	1018.2	7	0.000	0.0
20100112 08:45	-4.8	-4.8	-4.8	90	-6.2	2	3	270	0.0	1018.3	7	0.000	0.0
20100112 08:50	-4.8	-4.8	-4.8	90	-6.2	2	5	270	0.0	1018.2	9	0.000	0.0
20100112 08:55	-4.7	-4.7	-4.7	90	-6.1	2	5	270	0.0	1018.2	11	0.000	0.0
20100112 09:00	-4.7	-4.7	-4.7	90	-6.1	0	3	270	0.0	1018.1	11	0.000	0.0
20100112 09:05	-4.7	-4.7	-4.7	90	-6.1	0	3	270	0.0	1018.2	11	0.000	0.0
20100112 09:10	-4.7	-4.7	-4.7	90	-6.1	0	3	270	0.0	1018.1	11	0.000	0.0
20100112 09:15	-4.6	-4.6	-4.6	90	-5.9	2	3	270	0.0	1018.2	12	0.000	0.0
20100112 09:20	-4.6	-4.6	-4.6	89	-6.1	2	5	270	0.0	1018.1	13	0.000	0.0
20100112 09:25	-4.6	-4.6	-4.6	89	-6.1	2	5	270	0.0	1018.1	16	0.000	0.0
20100112 09:30	-4.6	-4.6	-4.6	89	-6.1	3	5	270	0.0	1018.1	17	0.000	0.0
20100112 09:35	-4.6	-4.6	-4.6	89	-6.1	2	5	270	0.0	1018.1	18	0.000	0.0
20100112 09:40	-4.4	-4.4	-4.4	90	-5.8	2	5	270	0.0	1018.1	20	0.000	0.0
20100112 09:45	-4.3	-4.3	-4.3	90	-5.7	0	3	270	0.0	1018.1	24	0.000	0.0
20100112 09:50	-4.2	-4.2	-4.2	89	-5.8	2	3	270	0.0	1018.1	26	0.000	0.0
20100112 09:55	-4.1	-4.1	-4.1	90	-5.4	2	5	270	0.0	1017.9	29	0.000	0.0
20100112 10:00	-3.9	-3.9	-3.9	89	-5.5	2	5	270	0.0	1017.9	31	0.000	0.0
20100112 10:05	-3.9	-3.9	-3.9	89	-5.5	3	5	135	0.0	790.7	34	0.000	0.0
20100112 10:10	-3.9	-3.9	-3.9	89	-5.5	2	5	135	0.0	1017.7	37	0.000	0.0
20100112 10:15	-3.8	-3.8	-3.8	89	-5.4	2	5	135	0.0	1017.7	46	0.000	0.0
20100112 10:20	-3.7	-3.7	-3.7	89	-5.2	2	5	135	0.0	1017.7	52	0.000	0.0
20100112 10:25	-3.6	-3.6	-3.6	88	-5.3	3	6	135	0.0	1017.7	55	0.000	0.0
20100112 10:30	-3.6	-3.6	-3.6	88	-5.3	3	6	135	0.0	1017.6	48	0.000	0.0
20100112 10:35	-3.6	-3.6	-3.6	88	-5.3	5	10	135	0.0	789.1	42	0.000	0.0
20100112 10:40	-3.6	-3.6	-3.6	88	-5.3	5	8	135	0.0	789.1	39	0.000	0.0
20100112 10:45	-3.6	-3.6	-3.6	87	-5.5	3	6	158	0.0	1017.4	38	0.000	0.0
20100112 10:50	-3.7	-3.7	-3.7	87	-5.5	5	8	135	0.0	1017.3	35	0.000	0.0
20100112 10:55	-3.7	-3.7	-3.7	87	-5.5	3	8	135	0.0	1017.3	35	0.000	0.0
20100112 11:00	-3.6	-3.6	-3.6	87	-5.5	3	6	158	0.0	1017.3	35	0.025	0.0
20100112 11:05	-3.6	-3.6	-3.6	87	-5.5	3	6	135	0.0	1017.3	35	0.000	0.0
20100112 11:10	-3.6	-3.6	-3.6	87	-5.5	2	6	135	0.0	788.2	35	0.000	0.0
20100112 11:15	-3.6	-3.6	-3.6	88	-5.3	3	6	135	0.0	788.2	46	0.000	0.0
20100112 11:20	-3.6	-3.6	-3.6	87	-5.4	5	8	135	0.0	1016.8	49	0.000	0.0
20100112 11:25	-3.5	-6.2	-3.5	87	-5.3	6	10	135	0.0	1016.7	49	0.000	0.0
20100112 11:30	-3.5	-6.2	-3.5	87	-5.3	6	10	135	0.0	1016.7	50	0.000	0.0
20100112 11:35	-3.4	-3.4	-3.4	87	-5.2	5	10	135	0.0	1016.7	46	0.000	0.0
20100112 11:40	-3.4	-6.1	-3.4	87	-5.2	6	14	135	0.0	1016.7	59	0.000	0.0
20100112 11:45	-3.4	-6.7	-3.4	87	-5.2	8	11	135	0.0	1016.7	54	0.000	0.0
20100112 11:50	-3.3	-6.0	-3.3	87	-5.2	6	10	135	0.0	786.9	57	0.000	0.0
20100112 11:55	-3.3	-6.0	-3.3	86	-5.3	6	13	135	0.0	786.9	43	0.000	0.0
20100112 12:00	-3.3	-6.0	-3.3	87	-5.2	6	11	135	0.0	786.9	47	0.025	0.0
20100112 12:05	-3.3	-6.0	-3.3	86	-5.3	6	10	135	0.0	786.9	68	0.000	0.0
20100112 12:10	-3.2	-5.9	-3.2	86	-5.2	6	11	135	0.0	786.9	73	0.000	0.0
20100112 12:15	-3.1	-5.8	-3.1	86	-5.1	6	10	135	0.0	786.9	74	0.000	0.0
20100112 12:20	-3.1	-5.8	-3.1	85	-5.3	6	16	135	0.0	786.9	56	0.000	0.0
20100112 12:25	-3.1	-5.8	-3.1	86	-5.1	6	11	135	0.0	786.9	59	0.000	0.0
20100112 12:30	-3.1	-3.1	-3.1	86	-5.1	5	8	135	0.0	786.9	53	0.000	0.0
20100112 12:35	-3.0	-3.0	-3.0	92	-4.1	3	8	135	0.0	786.9	53	0.000	0.0
20100112 12:40	-2.9	-2.9	-2.9	85	-5.1	5	8	135	0.0	786.6	55	0.000	0.0
20100112 12:45	-2.9	-2.9	-2.9	85	-5.1	5	8	135	0.0	786.4	73	0.000	0.0
20100112 12:50	-2.8	-2.8	-2.8	85	-4.9	3	8	135	0.0	786.1	67	0.000	0.0
20100112 12:55	-2.8	-2.8	-2.8	85	-4.9	2	6	135	0.0	786.1	52	0.000	0.0
20100112 13:00	-2.7	-2.7	-2.7	85	-4.9	2	6	135	0.0	987.3	51	0.025	0.0
20100112 13:05	-2.6	-2.6	-2.6	84	-4.9	2	5	135	0.0	987.3	58	0.000	0.0
20100112 13:10	-2.6	-2.6	-2.6	84	-4.9	3	6	135	0.0	987.3	65	0.000	0.0
20100112 13:15	-2.6	-2.6	-2.6	84	-4.9	2	5	135	0.0	987.3	62	0.000	0.0
20100112 13:20	-2.6	-2.6	-2.6	84	-4.9	2	5	135	0.0	987.3	70	0.000	0.0
20100112 13:25	-2.7	-2.7	-2.7	83	-5.1	3	5	135	0.0	987.3	65	0.000	0.0
20100112 13:30	-2.7	-2.7	-2.7	84	-5.0	2	5	90	0.0	987.3	64	0.000	0.0
20100112 13:35	-2.8	-2.8	-2.8	84	-5.1	3	6	90	0.0	987.3	72	0.000	0.0
20100112 13:40	-2.8	-2.8	-2.8	84	-5.1	3	8	112	0.0	987.3	70	0.000	0.0
20100112 13:45	-2.7	-2.7	-2.7	84	-5.0	3	5	90	0.0	987.3	70	0.000	0.0
20100112 13:50	-2.7	-2.7	-2.7	84	-5.0	3	5	112	0.0	987.3	70	0.000	0.0
20100112 13:55	-2.7	-2.7	-2.7	83	-5.2	5	10	68	0.0	987.3	69	0.000	0.0
20100112 14:00	-2.8	-2.8	-2.8	83	-5.3	5	8	68	0.0	987.3	68	0.025	0.0
20100112 14:05	-2.9	-2.9	-2.9	83	-5.4	5	8	68	0.0	987.3	67	0.000	0.0
20100112 14:10	-3.0	-3.0	-3.0	84	-5.3	5	8	68	0.0	987.3	64	0.000	0.0
20100112 14:15	-3.1	-3.1	-3.1	84	-5.4	5	8	68	0.0	987.3	57	0.000	0.0
20100112 14:20	-3.2	-3.2	-3.2	84	-5.5	5	8	68	0.0	987.3	65	0.000	0.0
20100112 14:25	-3.2	-3.2	-3.2	85	-5.4	5	8	45	0.0	987.3	52	0.000	0.0
20100112 14:30	-3.4	-3.4	-3.4	85	-5.5	5	8	68	0.0	738.6	49	0.000	0.0
20100112 14:35	-3.4	-3.4	-3.4	85	-5.6	5	8	68	0.0	738.6	42	0.000	0.0
20100112 14:40	-3.4	-3.4	-3.4	86	-5.4	3	6	112	0.0	738.6	40	0.000	0.0
20100112 14:45	-3.3	-3.3	-3.3	86	-5.3	5	10	112	0.0	738.6	38	0.000	0.0
20100112 14:50	-3.2	-3.2	-3.2	86	-5.2	5	10	112	0.0	738.6	37	0.000	0.0
20100112 14:55	-3.2	-3.2	-3.2	85	-5.3	5	11	90	0.0	738.6	35	0.000	0.0
20100112 15:00	-3.2	-3.2	-3.2	85	-5.3	5	8	112	0.0	738.6	34	0.025	0.0
20100112 15:05	-3.2	-3.2	-3.2	85	-5.4	5	11	90	0.0	738.6	33	0.000	0.0
20100112 15:10	-3.3	-3.3	-3.3	85	-5.4	5	10	90	0.0	738.6	31	0.000	0.0
20100112 15:15	-3.3	-3.3	-3.3	85	-5.5	5	11	90	0.0	738.6	30	0.000	0.0
20100112 15:20	-3.3	-3.3	-3.3	85	-5.5	5	11	90	0.0	738.6	30	0.000	0.0
20100112 15:25	-3.5	-3.5	-3.5	84	-5.8	5	10	68	0.0	738.6	28	0.000	0.0
20100112 15:30	-3.7	-3.7	-3.7	84	-6.0	5	8	68	0.0	738.6	30	0.000	0.0
20100112 15:35	-4.0	-4.0	-4.0	85	-6.1	5	10	68	0.0	738.6	27	0.000	0.0
20100112 15:40	-4.2	-4.2	-4.2	86	-6.2	5	10	68	0.0	738.6	25	0.000	0.0
20100112 15:45	-4.3	-4.3	-4.3	87	-6.1	5	10	68	0.0	738.6	19	0.000	0.0
20100112 15:50	-4.4	-4.4	-4.4	87	-6.3	5	11	68	0.0	738.6	12	0.000	0.0
20100112 15:55	-4.5	-4.5	-4.5	88	-6.2	5	8	68	0.0	738.6	10	0.000	0.0
20100112 16:00	-4.6	-4.6	-4.6	88	-6.3	5	10	68	0.0	738.6	8	0.000	0.0
20100112 16:05	-4.7	-4.7	-4.7	87	-6.5	3	6	68	0.0	738.6	7	0.000	0.0
20100112 16:10	-4.9	-4.9	-4.9	88	-6.6	3	6	90	0.0	738.6	6	0.000	0.0
20100112 16:15	-4.9	-4.9	-4.9	88	-6.6	5	8	68	0.0	738.6	5	0.000	0.0
20100112 16:20	-4.9	-4.9	-4.9	88	-6.6	3	10	68	0.0	738.6	4	0.000	0.0
20100112 16:25	-4.9	-4.9	-4.9	88	-6.6	5	8	68	0.0	738.6	0	0.000	0.0
20100112 16:30	-5.0	-5.0	-5.0	88	-6.7	5	10	68	0.0	738.6	0	0.000	0.0
20100112 16:35	-5.1	-5.1	-5.1	88	-6.8	3	8	68	0.0	738.6	0	0.000	0.0
20100112 16:40	-5.2	-8.2	-5.2	88	-6.9	6	10	68	0.0	738.6	0	0.000	0.0
20100112 16:45	-5.3	-5.3	-5.3	88	-6.9	5	6	68	0.0	738.6	0	0.000	0.0
20100112 16:50	-5.4	-5.4	-5.4	89	-6.9	3	5	68	0.0	958.4	0	0.000	0.0
20100112 16:55	-5.5	-5.5	-5.5	89	-7.0	2	5	68	0.0	875.8	0	0.000	0.0
20100112 17:00	-5.6	-5.6	-5.6	89	-7.1	5	10	68	0.0	875.7	0	0.000	0.0
20100112 17:05	-5.5	-5.5	-5.5	90	-6.9	5	10	90	0.0	875.7	0	0.000	0.0
20100112 17:10	-5.3	-5.3	-5.3	90	-6.7	5	11	90	0.0	875.7	0	0.000	0.0
20100112 17:15	-5.1	-5.1	-5.1	90	-6.4	5	10	90	0.0	875.7	0	0.000	0.0
20100112 17:20	-4.9	-4.9	-4.9	90	-6.3	5	13	90	0.0	875.7	0	0.000	0.0
20100112 17:25	-4.9	-4.9	-4.9	90	-6.3	5	8	68	0.0	985.3	0	0.000	0.0
20100112 17:30	-4.9	-4.9	-4.9	89	-6.5	5	8	90	0.0	930.2	0	0.000	0.0
20100112 17:35	-5.0	-5.0	-5.0	89	-6.5	2	6	90	0.0	902.8	0	0.000	0.0
20100112 17:40	-5.1	-5.1	-5.1	89	-6.6	2	5	90	0.0	902.8	0	0.000	0.0
20100112 17:45	-5.2	-5.2	-5.2	89	-6.7	2	6	112	0.0	957.8	0	0.000	0.0
20100112 17:50	-5.2	-5.2	-5.2	89	-6.7	3	5	90	0.0	930.2	0	0.000	0.0
20100112 17:55	-5.3	-5.3	-5.3	89	-6.8	2	5	90	0.0	930.2	0	0.000	0.0
20100112 18:00	-5.4	-5.4	-5.4	89	-6.9	2	5	90	0.0	930.2	0	0.000	0.0
20100112 18:05	-5.5	-5.5	-5.5	89	-7.0	2	6	90	0.0	930.2	0	0.000	0.0
20100112 18:10	-5.7	-5.7	-5.7	89	-7.2	3	10	112	0.0	930.2	0	0.000	0.0
20100112 18:15	-5.7	-5.7	-5.7	89	-7.2	5	11	112	0.0	930.2	0	0.000	0.0
20100112 18:20	-5.4	-8.5	-5.4	90	-6.8	6	19	135	0.0	930.2	0	0.000	0.0
20100112 18:25	-5.2	-8.1	-5.2	90	-6.5	6	19	135	0.0	930.2	0	0.000	0.0
20100112 18:30	-5.0	-5.0	-5.0	90	-6.4	5	11	112	0.0	930.2	0	0.000	0.0
20100112 18:35	-4.9	-7.9	-4.9	90	-6.3	6	11	112	0.0	930.2	0	0.000	0.0
20100112 18:40	-4.9	-4.9	-4.9	89	-6.4	5	8	112	0.0	773.4	0	0.000	0.0
20100112 18:45	-4.9	-4.9	-4.9	90	-6.3	5	10	112	0.0	773.4	0	0.000	0.0
20100112 18:50	-4.9	-4.9	-4.9	89	-6.5	5	8	135	0.0	925.9	0	0.000	0.0
20100112 18:55	-5.0	-5.0	-5.0	89	-6.5	5	11	112	0.0	925.9	0	0.000	0.0
20100112 19:00	-5.1	-5.1	-5.1	89	-6.6	3	8	90	0.0	925.9	0	0.000	0.0
20100112 19:05	-5.2	-5.2	-5.2	88	-6.9	2	6	112	0.0	925.9	0	0.000	0.0
20100112 19:10	-5.3	-5.3	-5.3	89	-6.9	3	6	112	0.0	925.9	0	0.000	0.0
20100112 19:15	-5.4	-5.4	-5.4	89	-7.0	3	8	68	0.0	925.9	0	0.000	0.0
20100112 19:20	-5.6	-5.6	-5.6	89	-7.1	3	6	90	0.0	925.9	0	0.000	0.0
20100112 19:25	-5.6	-5.6	-5.6	88	-7.3	2	5	135	0.0	925.9	0	0.000	0.0
20100112 19:30	-5.7	-5.7	-5.7	88	-7.4	2	5	90	0.0	925.9	0	0.000	0.0
20100112 19:35	-5.8	-5.8	-5.8	89	-7.3	2	3	90	0.0	925.9	0	0.000	0.0
20100112 19:40	-5.9	-5.9	-5.9	89	-7.4	0	5	90	0.0	925.9	0	0.000	0.0
20100112 19:45	-6.0	-6.0	-6.0	88	-7.7	0	2	90	0.0	965.3	0	0.000	0.0
20100112 19:50	-6.1	-6.1	-6.1	89	-7.6	2	3	90	0.0	965.3	0	0.000	0.0
20100112 19:55	-6.2	-6.2	-6.2	88	-7.8	0	3	90	0.0	965.3	0	0.000	0.0
20100112 20:00	-6.4	-6.4	-6.4	88	-8.0	0	3	90	0.0	965.3	0	0.000	0.0
20100112 20:05	-6.7	-6.7	-6.7	88	-8.3	0	5	90	0.0	965.3	0	0.000	0.0
20100112 20:10	-6.8	-6.8	-6.8	88	-8.5	2	3	90	0.0	965.3	0	0.000	0.0
20100112 20:15	-6.8	-6.8	-6.8	89	-8.3	0	3	90	0.0	965.3	0	0.000	0.0
20100112 20:20	-6.9	-6.9	-6.9	89	-8.4	0	3	90	0.0	965.3	0	0.000	0.0
20100112 20:25	-6.9	-6.9	-6.9	89	-8.4	0	2	90	0.0	965.3	0	0.000	0.0
20100112 20:30	-6.9	-6.9	-6.9	89	-8.4	3	6	90	0.0	965.3	0	0.000	0.0
20100112 20:35	-6.9	-6.9	-6.9	89	-8.4	2	5	90	0.0	965.3	0	0.000	0.0
20100112 20:40	-6.8	-6.8	-6.8	90	-8.2	2	5	112	0.0	965.3	0	0.000	0.0
20100112 20:45	-6.7	-6.7	-6.7	90	-8.0	5	11	112	0.0	965.3	0	0.000	0.0
20100112 20:50	-6.3	-10.1	-6.3	90	-7.6	8	16	112	0.0	544.0	0	0.000	0.0
20100112 20:55	-6.1	-9.9	-6.1	90	-7.5	8	11	135	0.0	544.0	0	0.000	0.0
20100112 21:00	-6.0	-10.8	-6.0	90	-7.4	11	19	112	0.0	544.0	0	0.000	0.0
20100112 21:05	-5.9	-10.8	-5.9	89	-7.5	11	16	112	0.0	735.1	0	0.000	0.0
20100112 21:10	-5.9	-10.2	-5.9	89	-7.4	10	16	112	0.0	543.9	0	0.000	0.0
20100112 21:15	-5.9	-10.2	-5.9	89	-7.4	10	16	112	0.0	543.9	0	0.000	0.0
20100112 21:20	-5.8	-10.6	-5.8	89	-7.3	11	18	135	0.0	543.8	0	0.000	0.0
20100112 21:25	-5.8	-9.6	-5.8	89	-7.3	8	13	135	0.0	735.1	0	0.000	0.0
20100112 21:30	-5.8	-11.1	-5.8	89	-7.3	13	21	112	0.0	735.1	0	0.000	0.0
20100112 21:35	-5.9	-10.7	-5.9	89	-7.4	11	19	112	0.0	735.1	0	0.000	0.0
20100112 21:40	-5.9	-11.1	-5.9	89	-7.4	13	19	112	0.0	735.1	0	0.000	0.0
20100112 21:45	-5.9	-10.3	-5.9	89	-7.5	10	18	135	0.0	735.1	0	0.000	0.0
20100112 21:50	-6.1	-11.3	-6.1	89	-7.6	13	19	112	0.0	926.1	0	0.000	0.0
20100112 21:55	-6.1	-11.0	-6.1	89	-7.6	11	19	112	0.0	735.1	0	0.000	0.0
20100112 22:00	-6.2	-11.1	-6.2	89	-7.7	11	18	112	0.0	590.3	0	0.000	0.0
20100112 22:05	-6.3	-11.2	-6.3	90	-7.6	11	18	112	0.0	590.3	0	0.000	0.0
20100112 22:10	-6.3	-11.2	-6.3	90	-7.7	11	21	112	0.0	590.3	0	0.000	0.0
20100112 22:15	-6.4	-11.3	-6.4	90	-7.8	11	18	112	0.0	590.3	0	0.000	0.0
20100112 22:20	-6.4	-10.2	-6.4	90	-7.8	8	16	112	0.0	590.3	0	0.000	0.0
20100112 22:25	-6.4	-11.3	-6.4	90	-7.8	11	18	112	0.0	590.3	0	0.000	0.0
20100112 22:30	-6.4	-10.3	-6.4	90	-7.8	8	14	112	0.0	590.3	0	0.000	0.0
20100112 22:35	-6.4	-10.3	-6.4	90	-7.8	8	11	112	0.0	735.1	0	0.000	0.0
20100112 22:40	-6.5	-10.4	-6.5	90	-7.9	8	16	112	0.0	735.1	0	0.000	0.0
20100112 22:45	-6.5	-9.7	-6.5	90	-7.9	6	11	135	0.0	735.1	0	0.000	0.0
20100112 22:50	-6.6	-10.4	-6.6	90	-7.9	8	14	112	0.0	735.1	0	0.000	0.0
20100112 22:55	-6.6	-10.5	-6.6	90	-8.0	8	18	112	0.0	735.1	0	0.000	0.0
20100112 23:00	-6.7	-10.6	-6.7	90	-8.0	8	13	112	0.0	781.3	0	0.000	0.0
20100112 23:05	-6.7	-10.6	-6.7	90	-8.0	8	19	135	0.0	781.3	0	0.000	0.0
20100112 23:10	-6.7	-11.1	-6.7	90	-8.0	10	16	135	0.0	781.3	0	0.000	0.0
20100112 23:15	-6.7	-11.7	-6.7	90	-8.1	11	19	112	0.0	781.1	0	0.000	0.0
20100112 23:20	-6.8	-11.8	-6.8	90	-8.1	11	19	112	0.0	781.1	0	0.000	0.0
20100112 23:25	-6.8	-11.3	-6.8	90	-8.1	10	18	135	0.0	781.1	0	0.000	0.0
20100112 23:30	-6.8	-11.3	-6.8	90	-8.1	10	18	135	0.0	1009.9	0	0.000	0.0
20100112 23:35	-6.8	-10.7	-6.8	90	-8.1	8	14	135	0.0	1009.8	0	0.000	0.0
20100112 23:40	-6.8	-10.7	-6.8	90	-8.1	8	14	112	0.0	781.1	0	0.000	0.0
20100112 23:45	-6.8	-11.3	-6.8	90	-8.2	10	18	112	0.0	781.2	0	0.000	0.0
20100112 23:50	-6.8	-10.7	-6.8	91	-8.0	8	16	112	0.0	781.2	0	0.000	0.0
20100112 23:55	-6.8	-11.3	-6.8	90	-8.1	10	21	112	0.0	781.2	0	0.000	0.0



Please note the license to use and transfer of this data:
http://creativecommons.org/licenses/by-nc-sa/3.0/deed.en

Bitte beachten sie die Lizenz zur Verwertung und Weitergabe der Daten:
http://creativecommons.org/licenses/by-nc-sa/3.0/deed.de

zurück zur Übersicht der Archivdaten (Monats und Tagesdaten)

Cookies helfen bei der Bereitstellung von Inhalten. Durch die Nutzung dieser Seiten erklärst du dich damit einverstanden, dass Cookies auf deinem Rechner gespeichert werden. Weitere Information